Time;durP1;ratioP1;P1;durP2;ratioP2;P2;SDS_P1;SDS_P2;PMS_P1;PMS_P2;Temp;Humidity;BMP_temperature;BMP_pressure;BME280_temperature;BME280_humidity;BME280_pressure;Samples;Min_cycle;Max_cycle;Signal;HPM_P1;HPM_P2
2021/07/17 00:00:49;;;;;;;10.70;5.28;;;;;;;24.71;43.74;98819.16;5037156;28;20029;-68
2021/07/17 00:03:15;;;;;;;10.98;4.00;;;;;;;24.90;42.96;98828.88;5052656;28;20108;-70
2021/07/17 00:05:43;;;;;;;15.43;5.35;;;;;;;24.69;43.15;98828.16;5051246;28;20047;-70
2021/07/17 00:08:09;;;;;;;28.77;5.70;;;;;;;24.42;43.74;98817.81;5046345;28;20033;-71
2021/07/17 00:10:54;;;;;;;18.80;5.65;;;;;;;24.59;43.82;98821.47;5052353;28;20398;-71
2021/07/17 00:13:20;;;;;;;16.00;5.38;;;;;;;24.70;43.43;98815.47;5051932;28;20059;-68
2021/07/17 00:15:47;;;;;;;14.63;5.00;;;;;;;24.60;43.67;98814.50;5051982;28;20041;-71
2021/07/17 00:18:15;;;;;;;18.02;6.78;;;;;;;24.37;43.77;98813.44;5034931;28;20120;-69
2021/07/17 00:20:41;;;;;;;7.97;5.38;;;;;;;24.13;44.99;98814.84;5052183;28;20094;-68
2021/07/17 00:23:07;;;;;;;12.75;6.20;;;;;;;23.90;45.96;98808.81;5051799;28;20561;-71
2021/07/17 00:25:33;;;;;;;16.17;6.35;;;;;;;23.77;46.62;98822.94;5049835;28;20148;-68
2021/07/17 00:27:59;;;;;;;13.55;5.68;;;;;;;23.75;46.67;98814.03;5034990;28;20194;-68
2021/07/17 00:30:25;;;;;;;13.30;6.00;;;;;;;23.80;46.52;98807.00;5037852;28;20025;-71
2021/07/17 00:32:50;;;;;;;9.60;5.43;;;;;;;23.76;46.74;98797.69;5034886;28;20087;-68
2021/07/17 00:35:16;;;;;;;9.45;5.15;;;;;;;23.89;46.12;98804.34;5039498;28;20041;-68
2021/07/17 00:37:42;;;;;;;11.10;5.05;;;;;;;23.94;46.02;98800.97;5042867;28;20111;-68
2021/07/17 00:40:10;;;;;;;8.88;5.45;;;;;;;23.92;46.54;98806.31;5042597;28;20471;-68
2021/07/17 00:42:41;;;;;;;15.00;6.78;;;;;;;23.85;46.84;98812.16;5045785;28;20395;-68
2021/07/17 00:45:07;;;;;;;15.57;6.30;;;;;;;23.74;46.99;98812.41;5033318;28;20037;-72
2021/07/17 00:47:35;;;;;;;12.18;6.38;;;;;;;23.32;47.95;98820.63;5049099;28;20024;-71
2021/07/17 00:50:00;;;;;;;17.73;7.15;;;;;;;22.65;50.11;98813.69;5049776;28;20033;-68
2021/07/17 00:52:26;;;;;;;16.60;7.35;;;;;;;22.41;50.87;98805.94;5047465;28;20021;-72
2021/07/17 00:54:52;;;;;;;19.17;6.75;;;;;;;22.81;50.11;98810.16;5040157;28;20486;-69
2021/07/17 00:57:19;;;;;;;14.80;6.45;;;;;;;23.05;49.38;98810.13;5037116;28;20037;-69
2021/07/17 00:59:47;;;;;;;8.00;6.35;;;;;;;23.31;48.39;98814.13;5043734;28;20036;-68
2021/07/17 01:02:13;;;;;;;12.52;6.28;;;;;;;23.33;48.34;98811.66;5042636;28;20049;-68
2021/07/17 01:04:40;;;;;;;7.63;5.85;;;;;;;23.53;47.92;98808.78;5047678;28;20517;-69
2021/07/17 01:07:06;;;;;;;12.07;5.50;;;;;;;23.55;47.50;98800.56;5045230;28;20048;-71
2021/07/17 01:09:31;;;;;;;11.48;5.75;;;;;;;23.42;47.51;98800.47;5045570;28;20020;-69
2021/07/17 01:11:57;;;;;;;12.63;6.22;;;;;;;23.34;47.57;98799.00;5037525;28;20463;-68
2021/07/17 01:14:24;;;;;;;11.88;5.30;;;;;;;23.50;47.15;98791.72;5046854;28;20063;-71
2021/07/17 01:16:50;;;;;;;8.32;5.53;;;;;;;23.67;46.81;98793.41;5049942;28;20041;-71
2021/07/17 01:19:21;;;;;;;11.32;5.25;;;;;;;23.57;46.93;98788.72;5048038;28;20090;-71
2021/07/17 01:21:47;;;;;;;10.77;5.47;;;;;;;23.83;46.56;98804.06;5037047;28;20052;-68
2021/07/17 01:24:12;;;;;;;13.48;5.88;;;;;;;23.62;46.70;98793.13;5033066;28;20029;-73
2021/07/17 01:26:40;;;;;;;12.93;5.57;;;;;;;23.65;47.01;98798.75;5038865;28;20501;-71
2021/07/17 01:29:06;;;;;;;11.35;5.78;;;;;;;23.71;46.80;98796.16;5036635;28;20491;-68
2021/07/17 01:31:32;;;;;;;13.93;5.60;;;;;;;23.81;46.67;98783.69;5039644;28;20029;-69
2021/07/17 01:33:57;;;;;;;9.18;5.50;;;;;;;23.67;46.84;98789.72;5034592;28;20022;-72
2021/07/17 01:36:22;;;;;;;13.20;5.75;;;;;;;23.59;47.30;98785.41;5037233;28;20030;-69
2021/07/17 01:38:48;;;;;;;12.35;5.47;;;;;;;23.24;47.76;98780.84;5033091;28;20384;-72
2021/07/17 01:41:14;;;;;;;12.88;5.28;;;;;;;23.37;47.81;98778.13;5042562;28;20430;-69
2021/07/17 01:43:40;;;;;;;14.98;5.50;;;;;;;23.59;47.07;98777.69;5049999;28;20044;-71
2021/07/17 01:46:05;;;;;;;10.68;4.80;;;;;;;23.62;46.97;98782.50;5050122;28;20040;-72
2021/07/17 01:48:31;;;;;;;14.77;5.30;;;;;;;23.76;46.36;98783.41;5042941;28;20025;-69
2021/07/17 01:50:56;;;;;;;10.63;5.05;;;;;;;23.53;46.45;98791.66;5041606;28;20494;-72
2021/07/17 01:53:22;;;;;;;11.95;5.68;;;;;;;23.37;47.30;98794.47;5033254;28;20131;-72
2021/07/17 01:55:48;;;;;;;9.02;5.97;;;;;;;23.26;47.77;98788.94;5036500;28;20502;-72
2021/07/17 01:58:14;;;;;;;10.05;5.78;;;;;;;23.23;48.26;98786.97;5040361;28;20034;-68
2021/07/17 02:00:39;;;;;;;10.88;4.75;;;;;;;23.26;48.12;98788.94;5032057;28;20041;-68
2021/07/17 02:03:06;;;;;;;17.65;6.40;;;;;;;23.27;48.10;98801.97;5041176;28;20082;-69
2021/07/17 02:05:32;;;;;;;14.52;5.72;;;;;;;23.31;48.04;98793.34;5047983;28;20116;-69
2021/07/17 02:07:59;;;;;;;17.70;6.13;;;;;;;23.00;49.15;98797.19;5038407;28;20109;-68
2021/07/17 02:10:27;;;;;;;16.92;5.75;;;;;;;22.63;49.82;98794.19;5044797;28;20037;-72
2021/07/17 02:12:57;;;;;;;16.67;6.97;;;;;;;22.54;49.60;98791.88;5044984;28;20050;-72
2021/07/17 02:15:23;;;;;;;16.75;7.75;;;;;;;22.56;49.04;98800.84;5049848;28;20063;-72
2021/07/17 02:17:49;;;;;;;38.15;6.68;;;;;;;22.46;49.91;98813.19;5046733;28;20474;-76
2021/07/17 02:20:15;;;;;;;16.17;7.40;;;;;;;22.14;49.90;98818.16;5039247;28;20394;-74
2021/07/17 02:22:41;;;;;;;15.23;6.63;;;;;;;22.32;49.21;98816.25;5048389;28;20029;-75
2021/07/17 02:25:07;;;;;;;12.18;6.50;;;;;;;22.27;49.09;98814.72;5048289;28;20091;-77
2021/07/17 02:27:32;;;;;;;16.00;7.07;;;;;;;22.23;48.98;98809.06;5049662;28;20493;-76
2021/07/17 02:29:58;;;;;;;11.60;6.63;;;;;;;22.17;49.47;98816.47;5047701;28;20013;-75
2021/07/17 02:32:23;;;;;;;9.82;5.70;;;;;;;21.99;49.60;98823.25;5048526;28;20059;-75
2021/07/17 02:34:49;;;;;;;14.50;7.57;;;;;;;21.90;50.15;98811.59;5040725;28;20037;-74
2021/07/17 02:37:15;;;;;;;12.00;7.70;;;;;;;21.94;49.91;98812.34;5050300;28;20056;-74
2021/07/17 02:39:41;;;;;;;18.95;8.50;;;;;;;21.89;50.26;98821.38;5050449;28;20025;-74
2021/07/17 02:42:07;;;;;;;23.85;9.43;;;;;;;22.09;49.88;98817.84;5050390;28;20056;-74
2021/07/17 02:44:32;;;;;;;21.48;10.13;;;;;;;21.93;50.33;98818.47;5051511;28;20460;-75
2021/07/17 02:46:58;;;;;;;21.15;8.23;;;;;;;22.09;49.89;98810.09;5044467;28;20028;-77
2021/07/17 02:49:23;;;;;;;24.15;8.25;;;;;;;21.84;50.18;98819.00;5052028;28;20028;-74
2021/07/17 02:51:49;;;;;;;23.05;6.70;;;;;;;21.84;49.97;98814.13;5052008;28;20037;-75
2021/07/17 02:54:15;;;;;;;15.85;7.45;;;;;;;21.91;49.49;98815.25;5050612;28;20087;-75
2021/07/17 02:56:41;;;;;;;13.15;7.35;;;;;;;21.90;49.49;98811.59;5049671;28;20036;-74
2021/07/17 02:59:07;;;;;;;13.15;6.45;;;;;;;22.03;49.00;98814.66;5051899;28;20021;-76
2021/07/17 03:01:32;;;;;;;12.63;6.57;;;;;;;21.93;49.32;98810.72;5039676;28;20033;-71
2021/07/17 03:03:58;;;;;;;12.57;6.43;;;;;;;22.02;49.15;98813.03;5046690;28;20025;-72
2021/07/17 03:06:23;;;;;;;11.15;5.45;;;;;;;22.14;48.67;98806.78;5043088;28;20034;-70
2021/07/17 03:08:48;;;;;;;406.35;30.05;;;;;;;22.00;49.11;98806.97;5045204;28;20025;-70
2021/07/17 03:11:14;;;;;;;61.45;10.18;;;;;;;22.05;49.09;98817.06;5052074;28;20029;-71
2021/07/17 03:13:40;;;;;;;30.23;6.53;;;;;;;22.13;49.39;98818.59;5050902;28;20484;-77
2021/07/17 03:16:05;;;;;;;21.73;6.07;;;;;;;22.14;49.15;98815.31;5046623;28;20041;-74
2021/07/17 03:18:31;;;;;;;124.55;13.05;;;;;;;22.09;50.00;98815.78;5037388;28;20117;-75
2021/07/17 03:20:56;;;;;;;29.50;8.05;;;;;;;21.97;50.69;98813.53;5038313;28;20026;-75
2021/07/17 03:23:22;;;;;;;17.25;8.05;;;;;;;22.02;51.74;98818.72;5038346;28;20117;-70
2021/07/17 03:25:47;;;;;;;25.80;13.80;;;;;;;21.94;51.74;98818.03;5033772;28;20475;-71
2021/07/17 03:28:12;;;;;;;33.28;13.00;;;;;;;22.03;51.99;98820.38;5045513;28;20033;-70
2021/07/17 03:30:38;;;;;;;16.23;7.60;;;;;;;22.31;51.32;98821.16;5045410;28;20040;-70
2021/07/17 03:33:03;;;;;;;17.55;7.07;;;;;;;22.50;50.61;98813.94;5042155;28;20546;-73
2021/07/17 03:35:29;;;;;;;18.48;8.98;;;;;;;22.20;50.58;98809.91;5034837;28;20048;-70
2021/07/17 03:37:54;;;;;;;30.75;8.93;;;;;;;22.38;51.07;98812.47;5046854;28;20449;-70
2021/07/17 03:40:20;;;;;;;63.42;29.13;;;;;;;22.34;50.31;98816.66;5033022;28;20075;-72
2021/07/17 03:42:45;;;;;;;53.45;24.15;;;;;;;22.15;51.09;98816.09;5036024;28;20021;-73
2021/07/17 03:45:11;;;;;;;121.22;54.47;;;;;;;21.96;52.26;98812.75;5050016;28;20482;-71
2021/07/17 03:47:37;;;;;;;106.05;51.13;;;;;;;22.25;51.39;98809.44;5049896;28;20035;-70
2021/07/17 03:50:04;;;;;;;138.98;60.28;;;;;;;22.31;50.62;98806.91;5041278;28;20033;-73
2021/07/17 03:52:29;;;;;;;129.27;60.67;;;;;;;22.35;50.36;98804.81;5037957;28;20037;-74
2021/07/17 03:54:55;;;;;;;107.25;50.17;;;;;;;22.25;50.32;98800.06;5052735;28;20029;-73
2021/07/17 03:57:20;;;;;;;81.60;40.65;;;;;;;22.23;50.58;98803.38;5052491;28;20036;-74
2021/07/17 03:59:46;;;;;;;89.85;35.70;;;;;;;22.21;50.59;98807.88;5052406;28;20522;-74
2021/07/17 04:02:11;;;;;;;82.47;30.95;;;;;;;22.20;50.83;98812.75;5035828;28;20037;-73
2021/07/17 04:04:41;;;;;;;94.32;40.13;;;;;;;22.01;51.27;98812.25;5037029;28;20032;-74
2021/07/17 04:07:07;;;;;;;98.85;39.17;;;;;;;22.11;50.14;98803.97;5037186;28;20041;-75
2021/07/17 04:09:32;;;;;;;81.75;31.08;;;;;;;22.22;50.45;98798.09;5038948;28;20030;-73
2021/07/17 04:11:58;;;;;;;62.72;26.67;;;;;;;22.14;50.53;98805.97;5041167;28;20407;-74
2021/07/17 04:14:23;;;;;;;76.82;30.90;;;;;;;22.32;50.70;98802.00;5045973;28;20511;-75
2021/07/17 04:16:49;;;;;;;100.13;33.40;;;;;;;22.22;51.08;98807.47;5048177;28;20037;-74
2021/07/17 04:19:14;;;;;;;53.97;21.00;;;;;;;22.38;50.41;98798.22;5036664;28;20155;-73
2021/07/17 04:21:40;;;;;;;34.90;19.17;;;;;;;22.43;50.34;98805.47;5035907;28;20521;-74
2021/07/17 04:24:06;;;;;;;32.10;18.58;;;;;;;22.39;50.43;98801.91;5033929;28;20070;-75
2021/07/17 04:26:31;;;;;;;30.33;15.45;;;;;;;22.33;50.51;98804.44;5038094;28;20028;-73
2021/07/17 04:28:57;;;;;;;28.80;16.75;;;;;;;22.21;51.56;98803.00;5033901;28;20045;-70
2021/07/17 04:31:22;;;;;;;26.40;14.48;;;;;;;22.34;50.67;98808.09;5046199;28;20036;-70
2021/07/17 04:33:48;;;;;;;32.78;17.48;;;;;;;22.22;51.24;98815.19;5049061;28;20029;-75
2021/07/17 04:36:13;;;;;;;38.97;17.85;;;;;;;22.21;51.09;98814.41;5044943;28;20026;-75
2021/07/17 04:38:39;;;;;;;28.90;14.80;;;;;;;22.14;51.15;98815.31;5041162;28;20183;-75
2021/07/17 04:41:04;;;;;;;24.45;12.88;;;;;;;22.23;51.03;98813.94;5030331;28;20033;-70
2021/07/17 04:43:30;;;;;;;16.02;8.60;;;;;;;22.29;50.80;98813.03;5033088;28;20029;-74
2021/07/17 04:45:56;;;;;;;17.15;8.93;;;;;;;22.34;50.81;98814.59;5032328;28;20115;-70
2021/07/17 04:48:21;;;;;;;13.65;6.93;;;;;;;22.43;49.57;98803.44;5038122;28;20017;-70
2021/07/17 04:50:46;;;;;;;17.95;6.93;;;;;;;22.55;50.13;98806.97;5041423;28;20507;-70
2021/07/17 04:53:12;;;;;;;11.73;6.75;;;;;;;22.56;49.99;98809.38;5046319;28;20021;-72
2021/07/17 04:55:38;;;;;;;14.52;7.20;;;;;;;22.52;50.61;98807.84;5048184;28;20055;-70
2021/07/17 04:58:04;;;;;;;13.40;6.22;;;;;;;22.58;50.15;98809.75;5043688;28;20086;-71
2021/07/17 05:00:30;;;;;;;9.93;5.15;;;;;;;22.76;49.31;98813.53;5040414;28;20471;-75
2021/07/17 05:02:56;;;;;;;12.55;6.65;;;;;;;22.75;48.89;98814.78;5044023;28;20109;-75
2021/07/17 05:05:23;;;;;;;12.93;5.93;;;;;;;22.84;48.79;98810.09;5037521;28;20034;-75
2021/07/17 05:07:50;;;;;;;28.92;5.68;;;;;;;22.86;49.50;98807.63;5049011;28;20094;-70
2021/07/17 05:10:18;;;;;;;8.35;5.75;;;;;;;23.02;49.01;98814.66;5049930;28;20098;-75
2021/07/17 05:12:44;;;;;;;16.67;5.63;;;;;;;23.20;48.13;98813.50;5048243;28;20025;-70
2021/07/17 05:15:12;;;;;;;12.40;4.88;;;;;;;23.21;47.92;98810.22;5037797;28;20554;-70
2021/07/17 05:17:38;;;;;;;12.02;4.75;;;;;;;23.17;48.29;98809.47;5036516;28;20032;-70
2021/07/17 05:20:06;;;;;;;21.02;4.82;;;;;;;23.38;48.30;98804.63;5036189;28;20026;-74
2021/07/17 05:22:32;;;;;;;9.38;4.85;;;;;;;23.51;47.39;98799.03;5037802;28;20049;-74
2021/07/17 05:24:58;;;;;;;15.80;5.78;;;;;;;23.73;47.45;98804.28;5037644;28;20033;-75
2021/07/17 05:27:23;;;;;;;14.55;5.22;;;;;;;23.78;46.55;98801.72;5034564;28;20392;-75
2021/07/17 05:29:49;;;;;;;7.88;5.57;;;;;;;23.77;46.69;98805.00;5037804;28;20226;-75
2021/07/17 05:32:15;;;;;;;12.48;7.55;;;;;;;23.91;46.52;98801.03;5032057;28;20072;-73
2021/07/17 05:34:41;;;;;;;19.15;7.00;;;;;;;23.92;46.39;98803.47;5046577;28;20028;-75
2021/07/17 05:37:07;;;;;;;15.40;6.75;;;;;;;24.03;45.86;98803.22;5049520;28;20099;-75
2021/07/17 05:39:33;;;;;;;16.08;10.32;;;;;;;24.22;45.05;98795.84;5050091;28;20083;-71
2021/07/17 05:41:59;;;;;;;17.98;8.63;;;;;;;24.21;45.32;98796.31;5045370;28;20123;-70
2021/07/17 05:44:24;;;;;;;15.60;8.02;;;;;;;24.17;45.07;98798.41;5035101;28;20028;-75
2021/07/17 05:46:49;;;;;;;21.67;8.90;;;;;;;24.27;45.11;98803.06;5039570;28;20036;-74
2021/07/17 05:49:15;;;;;;;16.88;7.80;;;;;;;24.40;44.20;98803.19;5035115;28;20025;-74
2021/07/17 05:51:40;;;;;;;24.83;11.63;;;;;;;24.39;43.98;98804.44;5033916;28;20029;-75
2021/07/17 05:54:06;;;;;;;14.00;6.65;;;;;;;24.46;43.64;98812.81;5049014;28;20438;-74
2021/07/17 05:56:31;;;;;;;10.13;4.95;;;;;;;24.71;42.71;98802.78;5049262;28;20090;-74
2021/07/17 05:58:57;;;;;;;8.02;5.50;;;;;;;24.75;42.72;98800.66;5044146;28;20056;-70
2021/07/17 06:01:22;;;;;;;13.75;6.53;;;;;;;24.70;42.21;98795.47;5038764;28;20025;-70
2021/07/17 06:03:48;;;;;;;17.15;5.10;;;;;;;24.73;42.70;98800.28;5043436;28;20407;-74
2021/07/17 06:06:13;;;;;;;15.20;5.82;;;;;;;24.81;42.94;98793.16;5045989;28;20483;-74
2021/07/17 06:08:38;;;;;;;10.32;4.53;;;;;;;24.94;42.50;98798.94;5040959;28;20036;-70
2021/07/17 06:11:04;;;;;;;12.82;4.80;;;;;;;24.88;43.11;98799.94;5039769;28;20569;-74
2021/07/17 06:13:30;;;;;;;11.48;4.85;;;;;;;25.04;42.77;98801.94;5043451;28;20057;-74
2021/07/17 06:15:55;;;;;;;10.55;5.47;;;;;;;25.23;42.50;98786.69;5042382;28;20044;-71
2021/07/17 06:18:20;;;;;;;13.77;5.22;;;;;;;25.32;42.50;98786.03;5034314;28;20390;-70
2021/07/17 06:20:46;;;;;;;11.40;4.95;;;;;;;25.36;41.61;98788.78;5031254;28;20499;-71
2021/07/17 06:23:12;;;;;;;18.52;5.20;;;;;;;25.50;41.37;98793.34;5030475;28;20026;-71
2021/07/17 06:25:37;;;;;;;20.23;5.15;;;;;;;25.61;41.49;98790.94;5035651;28;20041;-74
2021/07/17 06:28:03;;;;;;;11.38;5.78;;;;;;;25.64;41.87;98789.22;5034025;28;20024;-72
2021/07/17 06:30:29;;;;;;;10.88;4.15;;;;;;;25.67;41.62;98784.66;5038663;28;20138;-70
2021/07/17 06:32:54;;;;;;;10.52;3.92;;;;;;;25.69;41.50;98782.13;5039647;28;20510;-74
2021/07/17 06:35:20;;;;;;;16.50;4.90;;;;;;;25.77;41.66;98784.34;5038390;28;20521;-74
2021/07/17 06:37:45;;;;;;;13.07;4.43;;;;;;;25.87;41.69;98770.13;5036058;28;20025;-71
2021/07/17 06:40:13;;;;;;;14.02;4.53;;;;;;;26.04;39.80;98768.75;5041738;28;20107;-74
2021/07/17 06:42:40;;;;;;;11.65;3.83;;;;;;;26.06;39.66;98763.38;5038327;28;20407;-74
2021/07/17 06:45:06;;;;;;;13.57;4.78;;;;;;;26.20;39.41;98764.19;5041056;28;20044;-71
2021/07/17 06:47:32;;;;;;;13.27;4.47;;;;;;;26.34;39.41;98757.19;5038980;28;20566;-73
2021/07/17 06:49:57;;;;;;;14.95;5.20;;;;;;;26.47;39.37;98754.28;5038053;28;20018;-72
2021/07/17 06:52:22;;;;;;;10.68;4.65;;;;;;;26.66;38.81;98743.00;5040622;28;20020;-74
2021/07/17 06:54:48;;;;;;;9.68;4.03;;;;;;;26.80;39.46;98748.22;5042458;28;20033;-72
2021/07/17 06:57:13;;;;;;;12.35;4.28;;;;;;;26.88;38.53;98743.06;5037719;28;20045;-69
2021/07/17 06:59:39;;;;;;;12.38;4.05;;;;;;;26.80;38.71;98742.47;5040597;28;20032;-69
2021/07/17 07:02:04;;;;;;;12.40;5.20;;;;;;;26.82;38.74;98745.69;5031837;28;20026;-69
2021/07/17 07:04:30;;;;;;;21.05;4.97;;;;;;;26.92;38.72;98732.25;5042652;28;20414;-72
2021/07/17 07:06:55;;;;;;;16.70;4.95;;;;;;;27.08;38.11;98734.13;5048855;28;20029;-69
2021/07/17 07:09:21;;;;;;;7.30;4.13;;;;;;;27.21;37.80;98725.44;5047672;28;20028;-70
2021/07/17 07:11:46;;;;;;;6.55;4.75;;;;;;;27.10;39.08;98727.94;5043342;28;20030;-72
2021/07/17 07:14:12;;;;;;;10.85;3.85;;;;;;;27.15;38.12;98718.69;5033784;28;20057;-69
2021/07/17 07:16:37;;;;;;;10.57;3.83;;;;;;;27.28;38.41;98716.59;5036268;28;20026;-69
2021/07/17 07:19:03;;;;;;;13.93;4.45;;;;;;;27.62;36.67;98714.06;5033675;28;20021;-72
2021/07/17 07:21:28;;;;;;;20.90;3.95;;;;;;;27.79;36.81;98717.50;5042381;28;20033;-72
2021/07/17 07:23:53;;;;;;;26.58;5.85;;;;;;;27.78;37.13;98715.91;5031973;28;20099;-71
2021/07/17 07:26:19;;;;;;;20.27;4.78;;;;;;;27.83;37.12;98718.16;5044251;28;20029;-71
2021/07/17 07:28:44;;;;;;;22.80;4.65;;;;;;;27.89;37.73;98718.31;5047229;28;20041;-69
2021/07/17 07:31:10;;;;;;;12.65;4.28;;;;;;;28.08;37.22;98716.31;5035119;28;20038;-68
2021/07/17 07:33:36;;;;;;;7.35;3.80;;;;;;;28.21;36.43;98715.41;5052216;28;20469;-68
2021/07/17 07:36:01;;;;;;;11.95;4.53;;;;;;;28.24;36.43;98711.63;5052299;28;20033;-68
2021/07/17 07:38:27;;;;;;;54.22;6.78;;;;;;;28.40;36.47;98705.56;5050580;28;20021;-70
2021/07/17 07:40:52;;;;;;;20.52;5.20;;;;;;;28.51;36.33;98704.31;5048254;28;20094;-70
2021/07/17 07:43:17;;;;;;;10.88;5.57;;;;;;;28.51;34.09;98701.44;5051263;28;20021;-71
2021/07/17 07:45:43;;;;;;;13.70;5.95;;;;;;;28.50;34.29;98703.50;5050882;28;20104;-68
2021/07/17 07:48:08;;;;;;;10.35;3.67;;;;;;;28.68;33.50;98696.94;5044782;28;20029;-68
2021/07/17 07:50:34;;;;;;;10.13;3.05;;;;;;;28.78;34.26;98703.53;5039686;28;20039;-69
2021/07/17 07:52:59;;;;;;;12.88;3.25;;;;;;;28.80;32.86;98700.16;5048111;28;20242;-67
2021/07/17 07:55:25;;;;;;;12.98;3.50;;;;;;;28.80;32.47;98700.16;5051186;28;20033;-66
2021/07/17 07:57:50;;;;;;;7.65;4.10;;;;;;;28.89;31.10;98697.31;5043525;28;20021;-67
2021/07/17 08:00:17;;;;;;;12.05;4.25;;;;;;;28.98;31.73;98697.28;5045733;28;20044;-70
2021/07/17 08:02:42;;;;;;;12.20;3.63;;;;;;;29.10;31.79;98694.72;5051019;28;20052;-74
2021/07/17 08:05:09;;;;;;;3.67;2.95;;;;;;;29.21;31.26;98697.91;5051246;28;20482;-70
2021/07/17 08:07:35;;;;;;;5.15;3.08;;;;;;;29.36;31.31;98695.13;5042935;28;20056;-69
2021/07/17 08:10:01;;;;;;;8.15;3.03;;;;;;;29.59;29.46;98678.44;5032532;28;20017;-71
2021/07/17 08:12:26;;;;;;;10.02;3.67;;;;;;;29.73;29.42;98676.16;5034708;28;20419;-73
2021/07/17 08:14:52;;;;;;;11.82;3.60;;;;;;;29.83;29.96;98683.47;5041061;28;20449;-78
2021/07/17 08:17:17;;;;;;;6.13;3.35;;;;;;;30.00;29.90;98677.31;5040082;28;20156;-73
2021/07/17 08:19:42;;;;;;;7.68;3.78;;;;;;;29.98;30.60;98674.91;5033216;28;20487;-73
2021/07/17 08:22:08;;;;;;;16.60;4.10;;;;;;;30.15;29.91;98671.63;5032338;28;20033;-71
2021/07/17 08:24:33;;;;;;;10.23;3.47;;;;;;;30.16;31.34;98667.47;5036189;28;20029;-76
2021/07/17 08:26:59;;;;;;;10.32;3.35;;;;;;;30.13;30.30;98666.38;5041329;28;20036;-77
2021/07/17 08:29:24;;;;;;;13.60;3.38;;;;;;;30.25;29.80;98664.53;5045173;28;20430;-70
2021/07/17 08:31:50;;;;;;;7.68;3.40;;;;;;;30.26;30.23;98660.34;5048653;28;20044;-70
2021/07/17 08:34:15;;;;;;;13.93;3.50;;;;;;;30.39;31.04;98657.22;5042580;28;20029;-76
2021/07/17 08:36:41;;;;;;;8.93;3.17;;;;;;;30.43;30.64;98651.28;5033227;28;20068;-70
2021/07/17 08:39:06;;;;;;;27.17;4.90;;;;;;;30.49;30.05;98650.09;5031649;28;20029;-76
2021/07/17 08:41:34;;;;;;;14.02;3.90;;;;;;;30.56;30.14;98648.09;5033114;28;20048;-80
2021/07/17 08:44:01;;;;;;;20.83;3.60;;;;;;;30.74;29.33;98647.19;5039069;28;20029;-71
2021/07/17 08:46:27;;;;;;;34.20;14.95;;;;;;;30.72;31.41;98646.88;5037646;28;20061;-71
2021/07/17 08:48:55;;;;;;;34.95;12.13;;;;;;;30.91;30.36;98651.19;5043615;28;20458;-74
2021/07/17 08:51:21;;;;;;;27.30;9.60;;;;;;;30.98;30.06;98644.22;5038391;28;20442;-75
2021/07/17 08:53:48;;;;;;;6.00;3.95;;;;;;;31.02;29.51;98641.94;5049985;28;20068;-76
2021/07/17 08:56:14;;;;;;;9.20;3.40;;;;;;;31.10;29.43;98640.25;5051803;28;20029;-71
2021/07/17 08:58:39;;;;;;;5.88;2.95;;;;;;;31.18;28.40;98640.66;5051436;28;20033;-75
2021/07/17 09:01:05;;;;;;;9.80;3.85;;;;;;;31.24;28.87;98635.78;5043432;28;20038;-72
2021/07/17 09:03:31;;;;;;;10.38;3.00;;;;;;;31.45;28.21;98638.75;5043037;28;20021;-76
2021/07/17 09:05:57;;;;;;;26.92;7.32;;;;;;;31.42;28.18;98642.66;5051129;28;20060;-73
2021/07/17 09:08:22;;;;;;;15.68;7.32;;;;;;;31.51;27.81;98633.88;5047463;28;20064;-73
2021/07/17 09:10:53;;;;;;;9.18;3.97;;;;;;;31.54;27.96;98637.06;5045136;28;20033;-73
2021/07/17 09:13:22;;;;;;;19.23;4.10;;;;;;;31.23;28.74;98633.41;5037436;28;20112;-73
2021/07/17 09:15:48;;;;;;;12.50;3.97;;;;;;;31.35;28.05;98623.63;5035586;28;20484;-72
2021/07/17 09:18:25;;;;;;;11.00;3.17;;;;;;;31.25;28.74;98622.16;5040324;28;20116;-71
2021/07/17 09:21:31;;;;;;;8.85;3.05;;;;;;;31.70;27.61;98622.06;5036133;28;20041;-72
2021/07/17 09:24:05;;;;;;;21.30;3.58;;;;;;;31.96;28.18;98618.50;5041056;28;20151;-71
2021/07/17 09:26:38;;;;;;;7.97;3.00;;;;;;;32.04;28.22;98613.91;5037361;28;20101;-72
2021/07/17 09:29:09;;;;;;;12.32;3.65;;;;;;;32.13;27.54;98615.06;5039816;28;20049;-77
2021/07/17 09:31:38;;;;;;;8.43;3.42;;;;;;;32.08;28.38;98605.00;5042963;28;20059;-79
2021/07/17 09:34:12;;;;;;;18.17;4.75;;;;;;;32.14;27.31;98602.97;5036422;28;20033;-71
2021/07/17 09:36:59;;;;;;;14.10;3.65;;;;;;;32.22;27.75;98609.16;5033929;28;20086;-71
2021/07/17 09:39:29;;;;;;;13.65;3.50;;;;;;;32.22;27.49;98594.69;5042843;28;20036;-76
2021/07/17 09:42:01;;;;;;;8.23;3.65;;;;;;;32.37;28.17;98600.41;5037609;28;20029;-77
2021/07/17 09:44:28;;;;;;;9.52;3.28;;;;;;;32.35;27.32;98589.34;5033537;28;20059;-71
2021/07/17 09:46:54;;;;;;;8.00;3.20;;;;;;;32.38;26.96;98583.84;5040378;28;20025;-71
2021/07/17 09:49:22;;;;;;;15.57;3.47;;;;;;;32.35;26.50;98579.88;5044849;28;20086;-73
2021/07/17 09:51:47;;;;;;;34.05;3.85;;;;;;;32.39;27.90;98576.75;5036356;28;20033;-72
2021/07/17 09:54:13;;;;;;;13.35;3.70;;;;;;;32.70;27.98;98578.13;5038743;28;20414;-76
2021/07/17 09:56:41;;;;;;;12.65;3.70;;;;;;;32.74;27.74;98567.91;5047751;28;20033;-77
2021/07/17 09:59:10;;;;;;;9.45;3.88;;;;;;;32.80;27.50;98573.75;5045199;28;20037;-75
2021/07/17 10:01:38;;;;;;;10.23;3.58;;;;;;;32.72;27.22;98578.44;5032305;28;20111;-78
2021/07/17 10:04:15;;;;;;;7.63;3.67;;;;;;;32.89;27.44;98579.38;5037135;28;20495;-73
2021/07/17 10:06:49;;;;;;;5.10;2.78;;;;;;;33.01;26.42;98568.72;5038084;28;20067;-72
2021/07/17 10:09:15;;;;;;;10.55;3.35;;;;;;;33.04;26.12;98572.69;5039779;28;20071;-73
2021/07/17 10:11:42;;;;;;;7.05;3.67;;;;;;;32.94;26.07;98559.69;5043602;28;20522;-72
2021/07/17 10:14:22;;;;;;;13.13;4.20;;;;;;;32.90;26.42;98560.72;5039567;28;20080;-76
2021/07/17 10:16:50;;;;;;;;;;;;;;;32.79;26.76;98563.47;5036027;28;20052;-72
2021/07/17 10:19:16;;;;;;;12.20;3.65;;;;;;;32.88;26.22;98565.41;5030505;28;20391;-70
2021/07/17 10:21:43;;;;;;;14.35;4.18;;;;;;;32.93;26.65;98558.91;5047311;28;20037;-70
2021/07/17 10:24:13;;;;;;;6.88;3.63;;;;;;;33.02;26.23;98560.81;5045379;28;20036;-71
2021/07/17 10:26:40;;;;;;;12.60;3.78;;;;;;;33.17;25.77;98557.78;5039689;28;20021;-70
2021/07/17 10:29:08;;;;;;;8.57;3.60;;;;;;;33.21;25.87;98557.56;5040385;28;20045;-71
2021/07/17 10:31:35;;;;;;;7.65;3.50;;;;;;;33.24;25.73;98551.50;5047485;28;20029;-74
2021/07/17 10:34:01;;;;;;;14.02;3.95;;;;;;;33.42;25.54;98561.13;5030939;28;20037;-71
2021/07/17 10:36:27;;;;;;;9.18;3.88;;;;;;;33.57;25.61;98558.09;5049756;28;20079;-70
2021/07/17 10:38:58;;;;;;;7.85;3.38;;;;;;;33.52;25.16;98550.16;5048891;28;20108;-70
2021/07/17 10:41:26;;;;;;;8.63;3.33;;;;;;;33.51;24.53;98540.69;5046773;28;20032;-70
2021/07/17 10:43:53;;;;;;;12.75;3.38;;;;;;;33.70;25.03;98540.25;5039786;28;20089;-71
2021/07/17 10:46:27;;;;;;;7.70;3.10;;;;;;;33.80;24.38;98532.94;5035099;28;20033;-70
2021/07/17 10:48:54;;;;;;;6.28;3.63;;;;;;;33.87;24.36;98526.66;5038098;28;20021;-72
2021/07/17 10:51:22;;;;;;;16.42;3.50;;;;;;;33.96;25.51;98522.72;5043731;28;20038;-71
2021/07/17 10:53:49;;;;;;;9.20;4.35;;;;;;;34.06;24.07;98519.63;5047664;28;20036;-70
2021/07/17 10:56:27;;;;;;;6.60;3.47;;;;;;;33.98;23.97;98504.81;5040691;28;20033;-70
2021/07/17 10:58:57;;;;;;;11.95;3.47;;;;;;;33.86;24.46;98516.38;5052188;28;20182;-70
2021/07/17 11:01:23;;;;;;;12.35;3.58;;;;;;;33.91;23.37;98509.00;5047398;28;20087;-71
2021/07/17 11:03:49;;;;;;;7.85;3.30;;;;;;;33.87;23.94;98506.34;5051821;28;20033;-71
2021/07/17 11:06:33;;;;;;;9.23;3.30;;;;;;;34.09;23.89;98501.16;5051832;28;20494;-71
2021/07/17 11:09:28;;;;;;;14.85;4.05;;;;;;;34.17;24.50;98502.25;5047833;28;20023;-71
2021/07/17 11:12:19;;;;;;;12.35;4.93;;;;;;;34.05;24.51;98506.44;5053473;28;20033;-72
2021/07/17 11:14:45;;;;;;;14.75;3.47;;;;;;;34.13;24.52;98485.09;5039098;28;20049;-71
2021/07/17 11:17:11;;;;;;;8.45;4.07;;;;;;;34.29;24.47;98500.97;5041144;28;20097;-70
2021/07/17 11:19:36;;;;;;;11.38;3.90;;;;;;;34.37;23.86;98503.34;5039533;28;20025;-71
2021/07/17 11:22:10;;;;;;;17.20;4.28;;;;;;;34.58;23.89;98496.03;5042760;28;20419;-71
2021/07/17 11:24:37;;;;;;;14.85;5.15;;;;;;;34.37;24.41;98500.44;5045265;28;20418;-71